sensor_id;sensor_type;location;lat;lon;timestamp;pressure;altitude;pressure_sealevel;temperature;humidity
39954;BME280;25631;51.516;-0.470;2022-12-24T00:01:45;100380.64;;;6.94;47.63
39954;BME280;25631;51.516;-0.470;2022-12-24T00:04:22;100381.20;;;7.32;47.38
39954;BME280;25631;51.516;-0.470;2022-12-24T00:06:58;100385.76;;;7.45;47.43
39954;BME280;25631;51.516;-0.470;2022-12-24T00:09:35;100394.56;;;7.37;47.44
39954;BME280;25631;51.516;-0.470;2022-12-24T00:12:11;100400.65;;;7.33;47.39
39954;BME280;25631;51.516;-0.470;2022-12-24T00:14:48;100401.94;;;7.42;47.23
39954;BME280;25631;51.516;-0.470;2022-12-24T00:17:25;100403.70;;;7.04;47.38
39954;BME280;25631;51.516;-0.470;2022-12-24T00:20:01;100409.82;;;7.34;47.48
39954;BME280;25631;51.516;-0.470;2022-12-24T00:22:37;100411.10;;;7.16;47.57
39954;BME280;25631;51.516;-0.470;2022-12-24T00:25:14;100417.71;;;7.09;47.64
39954;BME280;25631;51.516;-0.470;2022-12-24T00:27:50;100419.96;;;6.89;47.87
39954;BME280;25631;51.516;-0.470;2022-12-24T00:30:27;100421.00;;;6.96;47.88
39954;BME280;25631;51.516;-0.470;2022-12-24T00:33:04;100425.32;;;6.74;47.81
39954;BME280;25631;51.516;-0.470;2022-12-24T00:35:40;100428.66;;;6.93;47.67
39954;BME280;25631;51.516;-0.470;2022-12-24T00:38:17;100430.54;;;7.05;47.61
39954;BME280;25631;51.516;-0.470;2022-12-24T00:40:57;100425.13;;;6.77;47.65
39954;BME280;25631;51.516;-0.470;2022-12-24T00:43:34;100428.92;;;7.03;47.41
39954;BME280;25631;51.516;-0.470;2022-12-24T00:46:11;100429.05;;;7.01;47.38
39954;BME280;25631;51.516;-0.470;2022-12-24T00:48:48;100428.40;;;6.90;47.33
39954;BME280;25631;51.516;-0.470;2022-12-24T00:51:25;100426.90;;;6.72;47.51
39954;BME280;25631;51.516;-0.470;2022-12-24T00:54:01;100430.27;;;6.97;47.30
39954;BME280;25631;51.516;-0.470;2022-12-24T00:56:38;100426.56;;;6.89;47.26
39954;BME280;25631;51.516;-0.470;2022-12-24T00:59:15;100429.18;;;7.21;47.06
39954;BME280;25631;51.516;-0.470;2022-12-24T01:01:51;100435.18;;;6.99;47.03
39954;BME280;25631;51.516;-0.470;2022-12-24T01:04:28;100441.06;;;6.96;47.04
39954;BME280;25631;51.516;-0.470;2022-12-24T01:07:05;100450.94;;;7.21;46.83
39954;BME280;25631;51.516;-0.470;2022-12-24T01:09:41;100447.34;;;7.34;46.87
39954;BME280;25631;51.516;-0.470;2022-12-24T01:12:18;100446.25;;;7.14;46.81
39954;BME280;25631;51.516;-0.470;2022-12-24T01:14:54;100442.79;;;7.38;46.74
39954;BME280;25631;51.516;-0.470;2022-12-24T01:17:31;100449.14;;;7.17;46.69
39954;BME280;25631;51.516;-0.470;2022-12-24T01:20:12;100457.79;;;7.34;46.55
39954;BME280;25631;51.516;-0.470;2022-12-24T01:22:49;100460.60;;;7.24;46.49
39954;BME280;25631;51.516;-0.470;2022-12-24T01:25:26;100463.24;;;7.16;46.42
39954;BME280;25631;51.516;-0.470;2022-12-24T01:28:02;100465.06;;;7.51;46.36
39954;BME280;25631;51.516;-0.470;2022-12-24T01:30:40;100468.94;;;7.19;46.33
39954;BME280;25631;51.516;-0.470;2022-12-24T01:33:17;100469.43;;;7.28;46.33
39954;BME280;25631;51.516;-0.470;2022-12-24T01:35:54;100469.00;;;7.36;46.30
39954;BME280;25631;51.516;-0.470;2022-12-24T01:38:31;100472.15;;;6.98;46.38
39954;BME280;25631;51.516;-0.470;2022-12-24T01:41:13;100477.31;;;6.97;46.53
39954;BME280;25631;51.516;-0.470;2022-12-24T01:43:50;100479.34;;;7.01;46.56
39954;BME280;25631;51.516;-0.470;2022-12-24T01:46:29;100485.44;;;6.91;46.68
39954;BME280;25631;51.516;-0.470;2022-12-24T01:49:10;100488.38;;;6.91;46.69
39954;BME280;25631;51.516;-0.470;2022-12-24T01:51:51;100487.31;;;7.01;47.10
39954;BME280;25631;51.516;-0.470;2022-12-24T01:54:31;100489.82;;;6.92;47.26
39954;BME280;25631;51.516;-0.470;2022-12-24T01:57:13;100492.82;;;6.84;47.31
39954;BME280;25631;51.516;-0.470;2022-12-24T01:59:55;100490.55;;;6.64;47.67
39954;BME280;25631;51.516;-0.470;2022-12-24T02:02:33;100490.35;;;6.66;47.65
39954;BME280;25631;51.516;-0.470;2022-12-24T02:05:16;100501.12;;;6.58;47.91
39954;BME280;25631;51.516;-0.470;2022-12-24T02:07:53;100501.23;;;6.69;47.90
39954;BME280;25631;51.516;-0.470;2022-12-24T02:10:30;100504.70;;;6.59;48.05
39954;BME280;25631;51.516;-0.470;2022-12-24T02:13:07;100504.79;;;6.60;47.99
39954;BME280;25631;51.516;-0.470;2022-12-24T02:15:55;100502.03;;;6.56;47.90
39954;BME280;25631;51.516;-0.470;2022-12-24T02:18:41;100501.34;;;6.42;47.88
39954;BME280;25631;51.516;-0.470;2022-12-24T02:21:40;100499.40;;;6.36;47.74
39954;BME280;25631;51.516;-0.470;2022-12-24T02:24:31;100507.19;;;6.59;47.54
39954;BME280;25631;51.516;-0.470;2022-12-24T02:27:18;100508.73;;;6.73;47.43
39954;BME280;25631;51.516;-0.470;2022-12-24T02:30:03;100507.44;;;7.06;47.24
39954;BME280;25631;51.516;-0.470;2022-12-24T02:32:51;100508.15;;;6.70;47.20
39954;BME280;25631;51.516;-0.470;2022-12-24T02:35:36;100507.56;;;6.73;47.10
39954;BME280;25631;51.516;-0.470;2022-12-24T02:38:17;100508.37;;;6.99;46.98
39954;BME280;25631;51.516;-0.470;2022-12-24T02:40:58;100509.95;;;6.77;46.88
39954;BME280;25631;51.516;-0.470;2022-12-24T02:43:38;100508.68;;;6.73;46.77
39954;BME280;25631;51.516;-0.470;2022-12-24T02:46:19;100509.28;;;7.08;46.84
39954;BME280;25631;51.516;-0.470;2022-12-24T02:48:58;100521.17;;;6.83;46.75
39954;BME280;25631;51.516;-0.470;2022-12-24T02:51:35;100527.99;;;6.87;46.78
39954;BME280;25631;51.516;-0.470;2022-12-24T02:54:14;100532.28;;;7.07;46.77
39954;BME280;25631;51.516;-0.470;2022-12-24T02:57:01;100530.17;;;6.74;46.82
39954;BME280;25631;51.516;-0.470;2022-12-24T02:59:56;100527.10;;;6.73;46.82
39954;BME280;25631;51.516;-0.470;2022-12-24T03:02:46;100533.93;;;6.78;46.71
39954;BME280;25631;51.516;-0.470;2022-12-24T03:05:30;100544.28;;;6.59;46.79
39954;BME280;25631;51.516;-0.470;2022-12-24T03:08:16;100543.18;;;6.56;47.06
39954;BME280;25631;51.516;-0.470;2022-12-24T03:11:01;100541.92;;;6.25;47.33
39954;BME280;25631;51.516;-0.470;2022-12-24T03:13:41;100542.46;;;6.45;47.21
39954;BME280;25631;51.516;-0.470;2022-12-24T03:16:22;100542.59;;;6.55;47.32
39954;BME280;25631;51.516;-0.470;2022-12-24T03:19:00;100543.24;;;6.45;47.19
39954;BME280;25631;51.516;-0.470;2022-12-24T03:21:39;100543.49;;;6.63;47.05
39954;BME280;25631;51.516;-0.470;2022-12-24T03:24:16;100542.13;;;6.50;46.97
39954;BME280;25631;51.516;-0.470;2022-12-24T03:26:53;100541.11;;;6.42;47.14
39954;BME280;25631;51.516;-0.470;2022-12-24T03:29:29;100538.19;;;6.58;47.26
39954;BME280;25631;51.516;-0.470;2022-12-24T03:32:06;100540.22;;;6.68;47.00
39954;BME280;25631;51.516;-0.470;2022-12-24T03:34:43;100540.00;;;6.26;47.43
39954;BME280;25631;51.516;-0.470;2022-12-24T03:37:20;100543.24;;;6.63;47.19
39954;BME280;25631;51.516;-0.470;2022-12-24T03:39:56;100550.82;;;6.26;47.36
39954;BME280;25631;51.516;-0.470;2022-12-24T03:42:33;100561.94;;;6.49;47.23
39954;BME280;25631;51.516;-0.470;2022-12-24T03:45:10;100575.53;;;6.74;47.23
39954;BME280;25631;51.516;-0.470;2022-12-24T03:47:46;100580.40;;;6.60;46.99
39954;BME280;25631;51.516;-0.470;2022-12-24T03:50:23;100579.77;;;6.64;46.83
39954;BME280;25631;51.516;-0.470;2022-12-24T03:53:00;100576.26;;;6.65;46.75
39954;BME280;25631;51.516;-0.470;2022-12-24T03:55:37;100565.29;;;6.97;46.74
39954;BME280;25631;51.516;-0.470;2022-12-24T03:58:13;100561.18;;;7.15;46.61
39954;BME280;25631;51.516;-0.470;2022-12-24T04:00:51;100558.51;;;6.85;46.62
39954;BME280;25631;51.516;-0.470;2022-12-24T04:03:28;100557.68;;;6.69;46.93
39954;BME280;25631;51.516;-0.470;2022-12-24T04:06:07;100557.68;;;6.55;46.85
39954;BME280;25631;51.516;-0.470;2022-12-24T04:08:45;100558.12;;;6.76;46.65
39954;BME280;25631;51.516;-0.470;2022-12-24T04:11:22;100567.88;;;6.66;46.73
39954;BME280;25631;51.516;-0.470;2022-12-24T04:13:59;100576.32;;;6.52;46.76
39954;BME280;25631;51.516;-0.470;2022-12-24T04:16:36;100577.16;;;6.68;46.67
39954;BME280;25631;51.516;-0.470;2022-12-24T04:19:13;100576.68;;;6.60;46.59
39954;BME280;25631;51.516;-0.470;2022-12-24T04:21:50;100580.79;;;6.20;46.72
39954;BME280;25631;51.516;-0.470;2022-12-24T04:24:26;100594.00;;;6.80;46.68
39954;BME280;25631;51.516;-0.470;2022-12-24T04:27:03;100599.15;;;6.51;46.63
39954;BME280;25631;51.516;-0.470;2022-12-24T04:29:39;100605.51;;;6.63;46.64
39954;BME280;25631;51.516;-0.470;2022-12-24T04:32:16;100607.31;;;6.37;46.69
39954;BME280;25631;51.516;-0.470;2022-12-24T04:34:53;100608.48;;;6.19;46.82
39954;BME280;25631;51.516;-0.470;2022-12-24T04:37:29;100608.27;;;6.39;46.80
39954;BME280;25631;51.516;-0.470;2022-12-24T04:40:07;100611.51;;;6.39;46.86
39954;BME280;25631;51.516;-0.470;2022-12-24T04:42:43;100618.60;;;6.30;46.69
39954;BME280;25631;51.516;-0.470;2022-12-24T04:45:20;100612.28;;;6.78;46.49
39954;BME280;25631;51.516;-0.470;2022-12-24T04:47:57;100608.00;;;6.65;46.43
39954;BME280;25631;51.516;-0.470;2022-12-24T04:50:33;100616.36;;;6.95;46.26
39954;BME280;25631;51.516;-0.470;2022-12-24T04:53:09;100619.73;;;6.84;46.32
39954;BME280;25631;51.516;-0.470;2022-12-24T04:55:47;100615.43;;;6.42;46.23
39954;BME280;25631;51.516;-0.470;2022-12-24T04:58:24;100623.62;;;6.83;46.16
39954;BME280;25631;51.516;-0.470;2022-12-24T05:01:03;100621.20;;;6.55;46.26
39954;BME280;25631;51.516;-0.470;2022-12-24T05:03:40;100621.35;;;6.58;46.20
39954;BME280;25631;51.516;-0.470;2022-12-24T05:06:20;100634.08;;;6.41;46.33
39954;BME280;25631;51.516;-0.470;2022-12-24T05:08:58;100626.10;;;6.47;46.36
39954;BME280;25631;51.516;-0.470;2022-12-24T05:11:34;100624.88;;;6.55;46.39
39954;BME280;25631;51.516;-0.470;2022-12-24T05:14:11;100630.26;;;6.57;46.28
39954;BME280;25631;51.516;-0.470;2022-12-24T05:16:48;100629.25;;;6.47;46.25
39954;BME280;25631;51.516;-0.470;2022-12-24T05:19:24;100640.28;;;6.56;46.24
39954;BME280;25631;51.516;-0.470;2022-12-24T05:22:02;100648.68;;;6.65;46.14
39954;BME280;25631;51.516;-0.470;2022-12-24T05:24:38;100648.23;;;6.64;46.17
39954;BME280;25631;51.516;-0.470;2022-12-24T05:27:16;100657.30;;;6.38;46.22
39954;BME280;25631;51.516;-0.470;2022-12-24T05:29:53;100661.69;;;6.36;46.20
39954;BME280;25631;51.516;-0.470;2022-12-24T05:32:30;100658.38;;;6.61;46.14
39954;BME280;25631;51.516;-0.470;2022-12-24T05:35:07;100660.89;;;6.78;46.06
39954;BME280;25631;51.516;-0.470;2022-12-24T05:37:43;100665.45;;;6.72;46.09
39954;BME280;25631;51.516;-0.470;2022-12-24T05:40:20;100665.36;;;6.84;46.01
39954;BME280;25631;51.516;-0.470;2022-12-24T05:42:56;100667.12;;;6.62;45.86
39954;BME280;25631;51.516;-0.470;2022-12-24T05:45:33;100667.04;;;6.35;45.74
39954;BME280;25631;51.516;-0.470;2022-12-24T05:48:09;100662.41;;;6.42;45.76
39954;BME280;25631;51.516;-0.470;2022-12-24T05:50:46;100665.51;;;6.13;45.97
39954;BME280;25631;51.516;-0.470;2022-12-24T05:53:23;100671.48;;;6.36;45.86
39954;BME280;25631;51.516;-0.470;2022-12-24T05:56:03;100675.59;;;6.63;45.82
39954;BME280;25631;51.516;-0.470;2022-12-24T05:58:40;100686.29;;;6.44;45.88
39954;BME280;25631;51.516;-0.470;2022-12-24T06:01:17;100693.53;;;6.18;46.02
39954;BME280;25631;51.516;-0.470;2022-12-24T06:03:56;100694.90;;;6.01;46.02
39954;BME280;25631;51.516;-0.470;2022-12-24T06:06:32;100695.75;;;5.99;46.08
39954;BME280;25631;51.516;-0.470;2022-12-24T06:09:09;100702.14;;;6.13;45.94
39954;BME280;25631;51.516;-0.470;2022-12-24T06:11:46;100702.88;;;6.47;45.83
39954;BME280;25631;51.516;-0.470;2022-12-24T06:14:22;100698.81;;;6.20;45.87
39954;BME280;25631;51.516;-0.470;2022-12-24T06:16:59;100701.24;;;6.41;45.85
39954;BME280;25631;51.516;-0.470;2022-12-24T06:19:36;100702.86;;;6.24;45.89
39954;BME280;25631;51.516;-0.470;2022-12-24T06:22:12;100703.62;;;6.27;45.83
39954;BME280;25631;51.516;-0.470;2022-12-24T06:24:49;100702.96;;;6.20;45.75
39954;BME280;25631;51.516;-0.470;2022-12-24T06:27:25;100705.51;;;6.30;45.64
39954;BME280;25631;51.516;-0.470;2022-12-24T06:30:02;100711.53;;;6.40;45.53
39954;BME280;25631;51.516;-0.470;2022-12-24T06:32:39;100711.47;;;6.31;45.55
39954;BME280;25631;51.516;-0.470;2022-12-24T06:35:16;100708.60;;;6.27;45.63
39954;BME280;25631;51.516;-0.470;2022-12-24T06:37:54;100711.51;;;5.95;45.52
39954;BME280;25631;51.516;-0.470;2022-12-24T06:40:30;100712.99;;;6.09;45.58
39954;BME280;25631;51.516;-0.470;2022-12-24T06:43:07;100718.57;;;6.02;45.64
39954;BME280;25631;51.516;-0.470;2022-12-24T06:45:45;100719.86;;;6.18;45.52
39954;BME280;25631;51.516;-0.470;2022-12-24T06:48:22;100724.18;;;5.97;45.70
39954;BME280;25631;51.516;-0.470;2022-12-24T06:51:01;100732.61;;;6.11;45.75
39954;BME280;25631;51.516;-0.470;2022-12-24T06:53:38;100735.93;;;5.99;45.83
39954;BME280;25631;51.516;-0.470;2022-12-24T06:56:15;100741.16;;;5.97;45.94
39954;BME280;25631;51.516;-0.470;2022-12-24T06:58:51;100745.78;;;5.92;46.03
39954;BME280;25631;51.516;-0.470;2022-12-24T07:01:28;100747.50;;;5.71;45.98
39954;BME280;25631;51.516;-0.470;2022-12-24T07:04:04;100755.29;;;5.82;45.86
39954;BME280;25631;51.516;-0.470;2022-12-24T07:06:41;100761.67;;;5.97;45.65
39954;BME280;25631;51.516;-0.470;2022-12-24T07:09:18;100758.53;;;5.95;45.53
39954;BME280;25631;51.516;-0.470;2022-12-24T07:11:54;100765.95;;;6.18;45.43
39954;BME280;25631;51.516;-0.470;2022-12-24T07:14:31;100762.65;;;6.17;45.34
39954;BME280;25631;51.516;-0.470;2022-12-24T07:17:08;100762.98;;;6.12;45.18
39954;BME280;25631;51.516;-0.470;2022-12-24T07:19:44;100766.21;;;6.00;45.12
39954;BME280;25631;51.516;-0.470;2022-12-24T07:22:21;100764.79;;;6.20;45.03
39954;BME280;25631;51.516;-0.470;2022-12-24T07:24:57;100766.91;;;6.27;44.97
39954;BME280;25631;51.516;-0.470;2022-12-24T07:27:34;100768.35;;;6.12;45.01
39954;BME280;25631;51.516;-0.470;2022-12-24T07:30:11;100772.28;;;6.06;45.09
39954;BME280;25631;51.516;-0.470;2022-12-24T07:32:48;100777.11;;;6.25;45.08
39954;BME280;25631;51.516;-0.470;2022-12-24T07:35:24;100783.18;;;6.34;44.99
39954;BME280;25631;51.516;-0.470;2022-12-24T07:38:01;100786.65;;;6.27;44.96
39954;BME280;25631;51.516;-0.470;2022-12-24T07:40:38;100789.14;;;6.22;44.91
39954;BME280;25631;51.516;-0.470;2022-12-24T07:43:14;100789.28;;;6.15;44.87
39954;BME280;25631;51.516;-0.470;2022-12-24T07:45:54;100788.73;;;6.21;44.85
39954;BME280;25631;51.516;-0.470;2022-12-24T07:48:31;100798.61;;;6.14;44.64
39954;BME280;25631;51.516;-0.470;2022-12-24T07:51:08;100799.19;;;6.01;44.76
39954;BME280;25631;51.516;-0.470;2022-12-24T07:53:45;100803.18;;;5.95;44.75
39954;BME280;25631;51.516;-0.470;2022-12-24T07:56:22;100806.67;;;6.01;44.82
39954;BME280;25631;51.516;-0.470;2022-12-24T07:58:58;100803.08;;;6.00;44.86
39954;BME280;25631;51.516;-0.470;2022-12-24T08:01:35;100803.56;;;6.02;44.88
39954;BME280;25631;51.516;-0.470;2022-12-24T08:04:13;100811.12;;;5.97;44.80
39954;BME280;25631;51.516;-0.470;2022-12-24T08:06:49;100813.20;;;6.08;44.79
39954;BME280;25631;51.516;-0.470;2022-12-24T08:09:26;100819.18;;;5.93;44.75
39954;BME280;25631;51.516;-0.470;2022-12-24T08:12:03;100820.60;;;5.84;44.73
39954;BME280;25631;51.516;-0.470;2022-12-24T08:14:40;100818.76;;;5.92;44.75
39954;BME280;25631;51.516;-0.470;2022-12-24T08:17:16;100819.96;;;5.83;44.79
39954;BME280;25631;51.516;-0.470;2022-12-24T08:19:52;100818.34;;;5.72;44.77
39954;BME280;25631;51.516;-0.470;2022-12-24T08:22:29;100819.55;;;5.90;44.84
39954;BME280;25631;51.516;-0.470;2022-12-24T08:25:07;100822.10;;;5.95;44.89
39954;BME280;25631;51.516;-0.470;2022-12-24T08:27:44;100828.45;;;5.84;44.79
39954;BME280;25631;51.516;-0.470;2022-12-24T08:30:21;100828.48;;;5.82;44.71
39954;BME280;25631;51.516;-0.470;2022-12-24T08:32:57;100825.58;;;5.94;44.71
39954;BME280;25631;51.516;-0.470;2022-12-24T08:35:34;100830.81;;;5.86;44.75
39954;BME280;25631;51.516;-0.470;2022-12-24T08:38:10;100836.22;;;5.99;44.82
39954;BME280;25631;51.516;-0.470;2022-12-24T08:40:47;100844.26;;;5.91;44.86
39954;BME280;25631;51.516;-0.470;2022-12-24T08:43:24;100846.29;;;5.90;44.84
39954;BME280;25631;51.516;-0.470;2022-12-24T08:46:02;100854.31;;;6.00;44.82
39954;BME280;25631;51.516;-0.470;2022-12-24T08:48:39;100846.32;;;5.80;44.71
39954;BME280;25631;51.516;-0.470;2022-12-24T08:51:15;100845.99;;;5.80;44.61
39954;BME280;25631;51.516;-0.470;2022-12-24T08:53:52;100848.62;;;5.76;44.59
39954;BME280;25631;51.516;-0.470;2022-12-24T08:56:30;100849.07;;;5.81;44.58
39954;BME280;25631;51.516;-0.470;2022-12-24T08:59:06;100838.53;;;5.89;44.54
39954;BME280;25631;51.516;-0.470;2022-12-24T09:01:43;100834.95;;;5.85;44.45
39954;BME280;25631;51.516;-0.470;2022-12-24T09:04:20;100845.55;;;5.94;44.39
39954;BME280;25631;51.516;-0.470;2022-12-24T09:06:56;100842.74;;;5.73;44.35
39954;BME280;25631;51.516;-0.470;2022-12-24T09:09:33;100841.92;;;5.80;44.33
39954;BME280;25631;51.516;-0.470;2022-12-24T09:12:09;100839.09;;;5.65;44.34
39954;BME280;25631;51.516;-0.470;2022-12-24T09:14:46;100848.52;;;5.61;44.35
39954;BME280;25631;51.516;-0.470;2022-12-24T09:17:22;100844.89;;;5.89;44.34
39954;BME280;25631;51.516;-0.470;2022-12-24T09:19:59;100846.78;;;5.70;44.29
39954;BME280;25631;51.516;-0.470;2022-12-24T09:22:38;100838.95;;;5.61;44.28
39954;BME280;25631;51.516;-0.470;2022-12-24T09:25:15;100834.60;;;5.59;44.33
39954;BME280;25631;51.516;-0.470;2022-12-24T09:27:51;100835.55;;;5.58;44.35
39954;BME280;25631;51.516;-0.470;2022-12-24T09:30:28;100838.70;;;5.58;44.29
39954;BME280;25631;51.516;-0.470;2022-12-24T09:33:05;100841.29;;;5.81;44.32
39954;BME280;25631;51.516;-0.470;2022-12-24T09:35:41;100839.71;;;5.85;44.32
39954;BME280;25631;51.516;-0.470;2022-12-24T09:38:18;100837.05;;;5.79;44.35
39954;BME280;25631;51.516;-0.470;2022-12-24T09:40:55;100839.16;;;5.72;44.43
39954;BME280;25631;51.516;-0.470;2022-12-24T09:43:33;100842.03;;;5.68;44.42
39954;BME280;25631;51.516;-0.470;2022-12-24T09:46:18;100849.49;;;5.35;44.31
39954;BME280;25631;51.516;-0.470;2022-12-24T09:49:01;100856.87;;;5.91;44.20
39954;BME280;25631;51.516;-0.470;2022-12-24T09:51:40;100858.07;;;5.90;44.32
39954;BME280;25631;51.516;-0.470;2022-12-24T09:54:23;100855.08;;;6.00;44.43
39954;BME280;25631;51.516;-0.470;2022-12-24T09:57:05;100851.88;;;6.15;44.52
39954;BME280;25631;51.516;-0.470;2022-12-24T09:59:44;100855.45;;;6.09;44.62
39954;BME280;25631;51.516;-0.470;2022-12-24T10:02:21;100864.84;;;6.07;44.69
39954;BME280;25631;51.516;-0.470;2022-12-24T10:04:58;100865.96;;;6.35;44.68
39954;BME280;25631;51.516;-0.470;2022-12-24T10:07:43;100864.76;;;6.10;44.68
39954;BME280;25631;51.516;-0.470;2022-12-24T10:10:27;100867.54;;;6.35;44.74
39954;BME280;25631;51.516;-0.470;2022-12-24T10:13:10;100868.14;;;6.12;44.75
39954;BME280;25631;51.516;-0.470;2022-12-24T10:15:55;100873.55;;;6.31;44.92
39954;BME280;25631;51.516;-0.470;2022-12-24T10:18:42;100873.95;;;6.28;45.06
39954;BME280;25631;51.516;-0.470;2022-12-24T10:21:29;100868.16;;;6.30;45.17
39954;BME280;25631;51.516;-0.470;2022-12-24T10:24:13;100870.80;;;6.25;45.32
39954;BME280;25631;51.516;-0.470;2022-12-24T10:26:56;100871.99;;;6.14;45.49
39954;BME280;25631;51.516;-0.470;2022-12-24T10:29:38;100868.65;;;6.17;45.73
39954;BME280;25631;51.516;-0.470;2022-12-24T10:32:20;100867.41;;;6.31;45.81
39954;BME280;25631;51.516;-0.470;2022-12-24T10:35:00;100873.35;;;6.20;45.97
39954;BME280;25631;51.516;-0.470;2022-12-24T10:37:40;100876.08;;;6.39;46.01
39954;BME280;25631;51.516;-0.470;2022-12-24T10:40:26;100876.52;;;6.37;46.12
39954;BME280;25631;51.516;-0.470;2022-12-24T10:43:11;100876.34;;;6.40;46.12
39954;BME280;25631;51.516;-0.470;2022-12-24T10:45:52;100879.77;;;6.55;46.17
39954;BME280;25631;51.516;-0.470;2022-12-24T10:48:35;100885.60;;;6.45;46.17
39954;BME280;25631;51.516;-0.470;2022-12-24T10:51:19;100883.60;;;6.42;46.20
39954;BME280;25631;51.516;-0.470;2022-12-24T10:54:00;100878.52;;;6.46;46.20
39954;BME280;25631;51.516;-0.470;2022-12-24T10:56:43;100870.38;;;6.44;46.22
39954;BME280;25631;51.516;-0.470;2022-12-24T10:59:25;100865.62;;;6.76;46.28
39954;BME280;25631;51.516;-0.470;2022-12-24T11:02:02;100867.70;;;6.74;46.29
39954;BME280;25631;51.516;-0.470;2022-12-24T11:04:46;100868.06;;;6.64;46.35
39954;BME280;25631;51.516;-0.470;2022-12-24T11:07:26;100875.58;;;6.41;46.34
39954;BME280;25631;51.516;-0.470;2022-12-24T11:10:05;100876.28;;;6.74;46.35
39954;BME280;25631;51.516;-0.470;2022-12-24T11:12:47;100870.24;;;6.43;46.39
39954;BME280;25631;51.516;-0.470;2022-12-24T11:15:27;100872.17;;;6.62;46.39
39954;BME280;25631;51.516;-0.470;2022-12-24T11:18:13;100880.56;;;6.63;46.39
39954;BME280;25631;51.516;-0.470;2022-12-24T11:20:51;100883.53;;;6.50;46.37
39954;BME280;25631;51.516;-0.470;2022-12-24T11:23:29;100890.54;;;6.42;46.29
39954;BME280;25631;51.516;-0.470;2022-12-24T11:26:05;100893.49;;;6.61;46.32
39954;BME280;25631;51.516;-0.470;2022-12-24T11:28:42;100889.73;;;6.45;46.38
39954;BME280;25631;51.516;-0.470;2022-12-24T11:31:20;100894.07;;;6.95;46.43
39954;BME280;25631;51.516;-0.470;2022-12-24T11:33:57;100889.08;;;6.80;46.41
39954;BME280;25631;51.516;-0.470;2022-12-24T11:36:34;100886.51;;;6.84;46.44
39954;BME280;25631;51.516;-0.470;2022-12-24T11:39:18;100882.27;;;6.72;46.42
39954;BME280;25631;51.516;-0.470;2022-12-24T11:41:56;100888.94;;;6.64;46.50
39954;BME280;25631;51.516;-0.470;2022-12-24T11:44:32;100893.32;;;6.94;46.48
39954;BME280;25631;51.516;-0.470;2022-12-24T11:47:13;100893.77;;;6.58;46.49
39954;BME280;25631;51.516;-0.470;2022-12-24T11:49:49;100893.88;;;6.95;46.35
39954;BME280;25631;51.516;-0.470;2022-12-24T11:52:28;100896.67;;;7.10;46.29
39954;BME280;25631;51.516;-0.470;2022-12-24T11:55:15;100894.05;;;7.10;46.29
39954;BME280;25631;51.516;-0.470;2022-12-24T11:57:57;100890.51;;;6.96;46.27
39954;BME280;25631;51.516;-0.470;2022-12-24T12:00:36;100890.00;;;6.99;46.30
39954;BME280;25631;51.516;-0.470;2022-12-24T12:03:31;100890.93;;;6.98;46.28
39954;BME280;25631;51.516;-0.470;2022-12-24T12:06:24;100890.83;;;7.16;46.28
39954;BME280;25631;51.516;-0.470;2022-12-24T12:09:05;100884.70;;;7.29;46.26
39954;BME280;25631;51.516;-0.470;2022-12-24T12:11:49;100888.56;;;7.39;46.27
39954;BME280;25631;51.516;-0.470;2022-12-24T12:14:31;100889.54;;;7.34;46.25
39954;BME280;25631;51.516;-0.470;2022-12-24T12:17:21;100890.55;;;7.53;46.15
39954;BME280;25631;51.516;-0.470;2022-12-24T12:20:06;100885.83;;;7.62;46.02
39954;BME280;25631;51.516;-0.470;2022-12-24T12:22:51;100881.16;;;7.85;45.98
39954;BME280;25631;51.516;-0.470;2022-12-24T12:25:33;100867.82;;;7.59;45.97
39954;BME280;25631;51.516;-0.470;2022-12-24T12:28:18;100867.43;;;7.48;46.07
39954;BME280;25631;51.516;-0.470;2022-12-24T12:31:01;100859.47;;;7.50;46.19
39954;BME280;25631;51.516;-0.470;2022-12-24T12:33:40;100856.48;;;7.50;46.15
39954;BME280;25631;51.516;-0.470;2022-12-24T12:36:22;100852.57;;;7.75;46.22
39954;BME280;25631;51.516;-0.470;2022-12-24T12:39:01;100856.42;;;7.77;46.27
39954;BME280;25631;51.516;-0.470;2022-12-24T12:41:48;100855.42;;;7.45;46.29
39954;BME280;25631;51.516;-0.470;2022-12-24T12:44:42;100853.14;;;7.52;46.35
39954;BME280;25631;51.516;-0.470;2022-12-24T12:47:37;100846.52;;;7.71;46.58
39954;BME280;25631;51.516;-0.470;2022-12-24T12:50:24;100839.53;;;7.54;46.66
39954;BME280;25631;51.516;-0.470;2022-12-24T12:53:21;100841.76;;;7.37;46.88
39954;BME280;25631;51.516;-0.470;2022-12-24T12:56:06;100839.17;;;7.46;47.09
39954;BME280;25631;51.516;-0.470;2022-12-24T12:58:50;100840.85;;;7.79;47.27
39954;BME280;25631;51.516;-0.470;2022-12-24T13:01:36;100840.18;;;7.68;47.30
39954;BME280;25631;51.516;-0.470;2022-12-24T13:04:41;100838.30;;;7.40;47.20
39954;BME280;25631;51.516;-0.470;2022-12-24T13:07:46;100835.57;;;7.53;47.29
39954;BME280;25631;51.516;-0.470;2022-12-24T13:10:39;100833.04;;;8.04;47.27
39954;BME280;25631;51.516;-0.470;2022-12-24T13:14:39;100840.11;;;7.64;47.41
39954;BME280;25631;51.516;-0.470;2022-12-24T13:17:37;100841.06;;;7.60;47.56
39954;BME280;25631;51.516;-0.470;2022-12-24T13:20:20;100842.88;;;7.61;47.54
39954;BME280;25631;51.516;-0.470;2022-12-24T13:23:02;100840.24;;;8.18;47.40
39954;BME280;25631;51.516;-0.470;2022-12-24T13:25:46;100846.39;;;7.71;47.48
39954;BME280;25631;51.516;-0.470;2022-12-24T13:28:32;100847.08;;;7.92;47.48
39954;BME280;25631;51.516;-0.470;2022-12-24T13:31:26;100842.70;;;7.58;47.52
39954;BME280;25631;51.516;-0.470;2022-12-24T13:34:33;100847.00;;;8.03;47.51
39954;BME280;25631;51.516;-0.470;2022-12-24T13:37:20;100842.60;;;7.99;47.63
39954;BME280;25631;51.516;-0.470;2022-12-24T13:40:13;100841.09;;;7.93;47.60
39954;BME280;25631;51.516;-0.470;2022-12-24T13:42:57;100837.74;;;8.00;47.57
39954;BME280;25631;51.516;-0.470;2022-12-24T13:45:44;100838.11;;;7.93;47.44
39954;BME280;25631;51.516;-0.470;2022-12-24T13:48:28;100837.89;;;8.08;47.38
39954;BME280;25631;51.516;-0.470;2022-12-24T13:51:19;100842.32;;;8.07;47.31
39954;BME280;25631;51.516;-0.470;2022-12-24T13:53:59;100841.31;;;8.12;47.28
39954;BME280;25631;51.516;-0.470;2022-12-24T13:56:36;100839.86;;;8.13;47.28